sensor_id;sensor_type;location;lat;lon;timestamp;temperature;humidity
36206;DHT22;22242;48.796;9.930;2024-02-23T18:17:34;5.30;99.90
36206;DHT22;22242;48.796;9.930;2024-02-23T18:20:01;5.00;99.90
36206;DHT22;22242;48.796;9.930;2024-02-23T18:22:27;4.90;99.90
36206;DHT22;22242;48.796;9.930;2024-02-23T18:24:54;4.90;99.90
36206;DHT22;22242;48.796;9.930;2024-02-23T18:27:21;4.80;99.90
36206;DHT22;22242;48.796;9.930;2024-02-23T18:29:51;4.60;99.90
36206;DHT22;22242;48.796;9.930;2024-02-23T18:32:18;4.60;99.90
36206;DHT22;22242;48.796;9.930;2024-02-23T18:34:46;4.60;99.90
36206;DHT22;22242;48.796;9.930;2024-02-23T18:37:13;4.70;99.90
36206;DHT22;22242;48.796;9.930;2024-02-23T18:39:40;4.70;99.90
36206;DHT22;22242;48.796;9.930;2024-02-23T18:42:07;4.60;99.90
36206;DHT22;22242;48.796;9.930;2024-02-23T18:44:35;4.70;99.90
36206;DHT22;22242;48.796;9.930;2024-02-23T18:47:02;4.60;99.90
36206;DHT22;22242;48.796;9.930;2024-02-23T18:49:28;4.50;99.90
36206;DHT22;22242;48.796;9.930;2024-02-23T18:51:58;4.50;99.90
36206;DHT22;22242;48.796;9.930;2024-02-23T18:54:25;4.50;99.90
36206;DHT22;22242;48.796;9.930;2024-02-23T18:56:52;4.40;99.90
36206;DHT22;22242;48.796;9.930;2024-02-23T18:59:19;4.30;99.90
36206;DHT22;22242;48.796;9.930;2024-02-23T19:01:46;4.20;99.90
36206;DHT22;22242;48.796;9.930;2024-02-23T19:04:13;4.30;99.90
36206;DHT22;22242;48.796;9.930;2024-02-23T19:06:39;4.30;99.90
36206;DHT22;22242;48.796;9.930;2024-02-23T19:09:08;4.30;99.90
36206;DHT22;22242;48.796;9.930;2024-02-23T19:11:34;4.30;99.90
36206;DHT22;22242;48.796;9.930;2024-02-23T19:14:01;4.30;99.90
36206;DHT22;22242;48.796;9.930;2024-02-23T19:16:28;4.30;99.90
36206;DHT22;22242;48.796;9.930;2024-02-23T19:18:55;4.20;99.90
36206;DHT22;22242;48.796;9.930;2024-02-23T19:21:22;4.20;99.90
36206;DHT22;22242;48.796;9.930;2024-02-23T19:23:49;4.30;99.90
36206;DHT22;22242;48.796;9.930;2024-02-23T19:26:17;4.20;99.90
36206;DHT22;22242;48.796;9.930;2024-02-23T19:28:44;4.10;99.90
36206;DHT22;22242;48.796;9.930;2024-02-23T19:31:11;4.10;99.90
36206;DHT22;22242;48.796;9.930;2024-02-23T19:33:38;4.10;99.90
36206;DHT22;22242;48.796;9.930;2024-02-23T19:36:05;4.10;99.90
36206;DHT22;22242;48.796;9.930;2024-02-23T19:38:35;4.10;99.90
36206;DHT22;22242;48.796;9.930;2024-02-23T19:41:02;4.10;99.90
36206;DHT22;22242;48.796;9.930;2024-02-23T19:43:30;4.10;99.90
36206;DHT22;22242;48.796;9.930;2024-02-23T19:45:57;4.10;99.90
36206;DHT22;22242;48.796;9.930;2024-02-23T19:48:24;4.00;99.90
36206;DHT22;22242;48.796;9.930;2024-02-23T19:50:51;4.00;99.90
36206;DHT22;22242;48.796;9.930;2024-02-23T19:53:17;4.00;99.90
36206;DHT22;22242;48.796;9.930;2024-02-23T19:55:46;4.00;99.90
36206;DHT22;22242;48.796;9.930;2024-02-23T19:58:13;4.00;99.90
36206;DHT22;22242;48.796;9.930;2024-02-23T20:00:41;4.10;99.90
36206;DHT22;22242;48.796;9.930;2024-02-23T20:03:07;4.00;99.90
36206;DHT22;22242;48.796;9.930;2024-02-23T20:05:34;3.90;99.90
36206;DHT22;22242;48.796;9.930;2024-02-23T20:08:01;3.90;99.90
36206;DHT22;22242;48.796;9.930;2024-02-23T20:10:28;3.90;99.90
36206;DHT22;22242;48.796;9.930;2024-02-23T20:12:55;3.90;99.90
36206;DHT22;22242;48.796;9.930;2024-02-23T20:15:22;3.90;99.90
36206;DHT22;22242;48.796;9.930;2024-02-23T20:17:50;4.00;99.90
36206;DHT22;22242;48.796;9.930;2024-02-23T20:20:18;4.10;99.90
36206;DHT22;22242;48.796;9.930;2024-02-23T20:22:45;4.20;99.90
36206;DHT22;22242;48.796;9.930;2024-02-23T20:25:12;4.20;99.90
36206;DHT22;22242;48.796;9.930;2024-02-23T20:27:39;4.40;99.90
36206;DHT22;22242;48.796;9.930;2024-02-23T20:30:07;4.30;99.90
36206;DHT22;22242;48.796;9.930;2024-02-23T20:32:35;4.30;99.90
36206;DHT22;22242;48.796;9.930;2024-02-23T20:35:03;4.20;99.90
36206;DHT22;22242;48.796;9.930;2024-02-23T20:37:32;4.10;99.90
36206;DHT22;22242;48.796;9.930;2024-02-23T20:40:00;4.00;99.90
36206;DHT22;22242;48.796;9.930;2024-02-23T20:42:27;4.10;99.90
36206;DHT22;22242;48.796;9.930;2024-02-23T20:44:54;4.30;99.90
36206;DHT22;22242;48.796;9.930;2024-02-23T20:47:20;4.20;99.90
36206;DHT22;22242;48.796;9.930;2024-02-23T20:49:47;4.10;99.90
36206;DHT22;22242;48.796;9.930;2024-02-23T20:52:16;4.20;99.90
36206;DHT22;22242;48.796;9.930;2024-02-23T20:54:44;4.20;99.90
36206;DHT22;22242;48.796;9.930;2024-02-23T20:57:12;4.20;99.90
36206;DHT22;22242;48.796;9.930;2024-02-23T20:59:39;4.30;99.90
36206;DHT22;22242;48.796;9.930;2024-02-23T21:02:06;4.30;99.90
36206;DHT22;22242;48.796;9.930;2024-02-23T21:04:33;4.30;99.90
36206;DHT22;22242;48.796;9.930;2024-02-23T21:07:00;4.20;99.90
36206;DHT22;22242;48.796;9.930;2024-02-23T21:09:29;4.30;99.90
36206;DHT22;22242;48.796;9.930;2024-02-23T21:11:56;4.30;99.90
36206;DHT22;22242;48.796;9.930;2024-02-23T21:14:23;4.20;99.90
36206;DHT22;22242;48.796;9.930;2024-02-23T21:16:50;4.20;99.90
36206;DHT22;22242;48.796;9.930;2024-02-23T21:19:17;4.30;99.90
36206;DHT22;22242;48.796;9.930;2024-02-23T21:21:43;4.40;99.90
36206;DHT22;22242;48.796;9.930;2024-02-23T21:24:10;4.30;99.90
36206;DHT22;22242;48.796;9.930;2024-02-23T21:26:39;4.30;99.90
36206;DHT22;22242;48.796;9.930;2024-02-23T21:29:05;4.20;99.90
36206;DHT22;22242;48.796;9.930;2024-02-23T21:31:32;4.20;99.90
36206;DHT22;22242;48.796;9.930;2024-02-23T21:33:59;4.20;99.90
36206;DHT22;22242;48.796;9.930;2024-02-23T21:36:27;4.00;99.90
36206;DHT22;22242;48.796;9.930;2024-02-23T21:38:54;4.10;99.90
36206;DHT22;22242;48.796;9.930;2024-02-23T21:41:20;4.10;99.90
36206;DHT22;22242;48.796;9.930;2024-02-23T21:43:48;4.00;99.90
36206;DHT22;22242;48.796;9.930;2024-02-23T21:46:15;4.00;99.90
36206;DHT22;22242;48.796;9.930;2024-02-23T21:48:42;4.10;99.90
36206;DHT22;22242;48.796;9.930;2024-02-23T21:51:09;4.00;99.90
36206;DHT22;22242;48.796;9.930;2024-02-23T21:53:36;4.10;99.90
36206;DHT22;22242;48.796;9.930;2024-02-23T21:56:03;4.10;99.90
36206;DHT22;22242;48.796;9.930;2024-02-23T21:58:30;4.20;99.90
36206;DHT22;22242;48.796;9.930;2024-02-23T22:00:59;4.30;99.90
36206;DHT22;22242;48.796;9.930;2024-02-23T22:03:26;4.30;99.90
36206;DHT22;22242;48.796;9.930;2024-02-23T22:05:54;4.40;99.90
36206;DHT22;22242;48.796;9.930;2024-02-23T22:08:21;4.40;99.90
36206;DHT22;22242;48.796;9.930;2024-02-23T22:10:47;4.50;99.90
36206;DHT22;22242;48.796;9.930;2024-02-23T22:13:14;4.50;99.90
36206;DHT22;22242;48.796;9.930;2024-02-23T22:15:41;4.40;99.90
36206;DHT22;22242;48.796;9.930;2024-02-23T22:18:10;4.50;99.90
36206;DHT22;22242;48.796;9.930;2024-02-23T22:20:37;4.50;99.90
36206;DHT22;22242;48.796;9.930;2024-02-23T22:23:04;4.40;99.90
36206;DHT22;22242;48.796;9.930;2024-02-23T22:25:31;4.30;99.90
36206;DHT22;22242;48.796;9.930;2024-02-23T22:27:58;4.40;99.90
36206;DHT22;22242;48.796;9.930;2024-02-23T22:30:24;4.50;99.90
36206;DHT22;22242;48.796;9.930;2024-02-23T22:32:51;4.60;99.90
36206;DHT22;22242;48.796;9.930;2024-02-23T22:35:19;4.50;99.90
36206;DHT22;22242;48.796;9.930;2024-02-23T22:37:48;4.60;99.90
36206;DHT22;22242;48.796;9.930;2024-02-23T22:40:15;4.50;99.90
36206;DHT22;22242;48.796;9.930;2024-02-23T22:42:42;4.60;99.90
36206;DHT22;22242;48.796;9.930;2024-02-23T22:45:09;4.50;99.90
36206;DHT22;22242;48.796;9.930;2024-02-23T22:47:37;4.40;99.90
36206;DHT22;22242;48.796;9.930;2024-02-23T22:50:04;4.30;99.90
36206;DHT22;22242;48.796;9.930;2024-02-23T22:52:32;4.30;99.90
36206;DHT22;22242;48.796;9.930;2024-02-23T22:54:59;4.30;99.90
36206;DHT22;22242;48.796;9.930;2024-02-23T22:57:26;4.30;99.90
36206;DHT22;22242;48.796;9.930;2024-02-23T22:59:53;4.30;99.90
36206;DHT22;22242;48.796;9.930;2024-02-23T23:02:19;4.30;99.90
36206;DHT22;22242;48.796;9.930;2024-02-23T23:04:46;4.30;99.90
36206;DHT22;22242;48.796;9.930;2024-02-23T23:07:13;4.20;99.90
36206;DHT22;22242;48.796;9.930;2024-02-23T23:09:41;4.10;99.90
36206;DHT22;22242;48.796;9.930;2024-02-23T23:12:09;4.20;99.90
36206;DHT22;22242;48.796;9.930;2024-02-23T23:14:36;4.10;99.90
36206;DHT22;22242;48.796;9.930;2024-02-23T23:17:03;4.10;99.90
36206;DHT22;22242;48.796;9.930;2024-02-23T23:19:30;4.20;99.90
36206;DHT22;22242;48.796;9.930;2024-02-23T23:21:56;4.20;99.90
36206;DHT22;22242;48.796;9.930;2024-02-23T23:24:23;4.20;99.90
36206;DHT22;22242;48.796;9.930;2024-02-23T23:26:51;4.10;99.90
36206;DHT22;22242;48.796;9.930;2024-02-23T23:29:18;4.10;99.90
36206;DHT22;22242;48.796;9.930;2024-02-23T23:31:45;4.20;99.90
36206;DHT22;22242;48.796;9.930;2024-02-23T23:34:12;4.20;99.90
36206;DHT22;22242;48.796;9.930;2024-02-23T23:36:39;4.20;99.90
36206;DHT22;22242;48.796;9.930;2024-02-23T23:39:06;4.10;99.90
36206;DHT22;22242;48.796;9.930;2024-02-23T23:41:33;4.00;99.90
36206;DHT22;22242;48.796;9.930;2024-02-23T23:44:01;4.00;99.90
36206;DHT22;22242;48.796;9.930;2024-02-23T23:46:28;4.10;99.90
36206;DHT22;22242;48.796;9.930;2024-02-23T23:48:55;4.10;99.90
36206;DHT22;22242;48.796;9.930;2024-02-23T23:51:22;4.10;99.90
36206;DHT22;22242;48.796;9.930;2024-02-23T23:53:48;4.20;99.90
36206;DHT22;22242;48.796;9.930;2024-02-23T23:56:21;4.20;99.90
36206;DHT22;22242;48.796;9.930;2024-02-23T23:58:48;4.20;99.90
